sensor_id;sensor_type;location;lat;lon;timestamp;temperature;humidity
22968;DHT22;11650;48.106;-1.696;2022-07-12T00:01:08;24.60;99.90
22968;DHT22;11650;48.106;-1.696;2022-07-12T00:03:34;24.60;99.90
22968;DHT22;11650;48.106;-1.696;2022-07-12T00:06:00;24.60;99.90
22968;DHT22;11650;48.106;-1.696;2022-07-12T00:08:26;24.60;99.90
22968;DHT22;11650;48.106;-1.696;2022-07-12T00:10:52;24.60;99.90
22968;DHT22;11650;48.106;-1.696;2022-07-12T00:13:18;24.50;99.90
22968;DHT22;11650;48.106;-1.696;2022-07-12T00:15:44;24.60;99.90
22968;DHT22;11650;48.106;-1.696;2022-07-12T00:18:10;24.40;99.90
22968;DHT22;11650;48.106;-1.696;2022-07-12T00:20:36;24.40;99.90
22968;DHT22;11650;48.106;-1.696;2022-07-12T00:23:03;24.30;99.90
22968;DHT22;11650;48.106;-1.696;2022-07-12T00:25:28;24.20;99.90
22968;DHT22;11650;48.106;-1.696;2022-07-12T00:27:54;24.10;99.90
22968;DHT22;11650;48.106;-1.696;2022-07-12T00:30:21;24.00;99.90
22968;DHT22;11650;48.106;-1.696;2022-07-12T00:32:47;24.00;99.90
22968;DHT22;11650;48.106;-1.696;2022-07-12T00:35:14;24.10;99.90
22968;DHT22;11650;48.106;-1.696;2022-07-12T00:37:40;24.00;99.90
22968;DHT22;11650;48.106;-1.696;2022-07-12T00:40:08;23.90;99.90
22968;DHT22;11650;48.106;-1.696;2022-07-12T00:42:35;23.90;99.90
22968;DHT22;11650;48.106;-1.696;2022-07-12T00:45:03;23.90;99.90
22968;DHT22;11650;48.106;-1.696;2022-07-12T00:49:59;23.70;99.90
22968;DHT22;11650;48.106;-1.696;2022-07-12T00:52:24;23.70;99.90
22968;DHT22;11650;48.106;-1.696;2022-07-12T00:54:50;23.70;99.90
22968;DHT22;11650;48.106;-1.696;2022-07-12T00:57:16;23.70;99.90
22968;DHT22;11650;48.106;-1.696;2022-07-12T00:59:42;23.70;99.90
22968;DHT22;11650;48.106;-1.696;2022-07-12T01:02:07;23.70;99.90
22968;DHT22;11650;48.106;-1.696;2022-07-12T01:04:34;23.60;99.90
22968;DHT22;11650;48.106;-1.696;2022-07-12T01:07:00;23.60;99.90
22968;DHT22;11650;48.106;-1.696;2022-07-12T01:09:27;23.50;99.90
22968;DHT22;11650;48.106;-1.696;2022-07-12T01:11:53;23.50;99.90
22968;DHT22;11650;48.106;-1.696;2022-07-12T01:14:19;23.50;99.90
22968;DHT22;11650;48.106;-1.696;2022-07-12T01:16:45;23.40;99.90
22968;DHT22;11650;48.106;-1.696;2022-07-12T01:19:13;23.30;99.90
22968;DHT22;11650;48.106;-1.696;2022-07-12T01:21:47;23.20;99.90
22968;DHT22;11650;48.106;-1.696;2022-07-12T01:24:17;23.20;99.90
22968;DHT22;11650;48.106;-1.696;2022-07-12T01:26:43;23.10;99.90
22968;DHT22;11650;48.106;-1.696;2022-07-12T01:29:09;23.00;99.90
22968;DHT22;11650;48.106;-1.696;2022-07-12T01:31:35;23.10;99.90
22968;DHT22;11650;48.106;-1.696;2022-07-12T01:34:02;23.10;99.90
22968;DHT22;11650;48.106;-1.696;2022-07-12T01:36:28;23.10;99.90
22968;DHT22;11650;48.106;-1.696;2022-07-12T01:38:54;23.00;99.90
22968;DHT22;11650;48.106;-1.696;2022-07-12T01:41:21;23.00;99.90
22968;DHT22;11650;48.106;-1.696;2022-07-12T01:43:47;22.90;99.90
22968;DHT22;11650;48.106;-1.696;2022-07-12T01:46:13;22.90;99.90
22968;DHT22;11650;48.106;-1.696;2022-07-12T01:48:39;22.80;99.90
22968;DHT22;11650;48.106;-1.696;2022-07-12T01:51:04;22.90;99.90
22968;DHT22;11650;48.106;-1.696;2022-07-12T01:53:30;22.90;99.90
22968;DHT22;11650;48.106;-1.696;2022-07-12T01:55:56;22.80;99.90
22968;DHT22;11650;48.106;-1.696;2022-07-12T01:58:22;22.70;99.90
22968;DHT22;11650;48.106;-1.696;2022-07-12T02:00:50;22.80;99.90
22968;DHT22;11650;48.106;-1.696;2022-07-12T02:03:19;22.70;99.90
22968;DHT22;11650;48.106;-1.696;2022-07-12T02:05:44;22.70;99.90
22968;DHT22;11650;48.106;-1.696;2022-07-12T02:08:12;22.60;99.90
22968;DHT22;11650;48.106;-1.696;2022-07-12T02:10:39;22.60;99.90
22968;DHT22;11650;48.106;-1.696;2022-07-12T02:13:05;22.60;99.90
22968;DHT22;11650;48.106;-1.696;2022-07-12T02:15:30;22.50;99.90
22968;DHT22;11650;48.106;-1.696;2022-07-12T02:17:57;22.40;99.90
22968;DHT22;11650;48.106;-1.696;2022-07-12T02:20:22;22.40;99.90
22968;DHT22;11650;48.106;-1.696;2022-07-12T02:22:48;22.40;99.90
22968;DHT22;11650;48.106;-1.696;2022-07-12T02:25:14;22.40;99.90
22968;DHT22;11650;48.106;-1.696;2022-07-12T02:27:40;22.40;99.90
22968;DHT22;11650;48.106;-1.696;2022-07-12T02:30:07;22.40;99.90
22968;DHT22;11650;48.106;-1.696;2022-07-12T02:32:33;22.30;99.90
22968;DHT22;11650;48.106;-1.696;2022-07-12T02:34:58;22.30;99.90
22968;DHT22;11650;48.106;-1.696;2022-07-12T02:37:25;22.30;99.90
22968;DHT22;11650;48.106;-1.696;2022-07-12T02:39:50;22.30;99.90
22968;DHT22;11650;48.106;-1.696;2022-07-12T02:42:16;22.30;99.90
22968;DHT22;11650;48.106;-1.696;2022-07-12T02:44:42;22.20;99.90
22968;DHT22;11650;48.106;-1.696;2022-07-12T02:47:07;22.20;99.90
22968;DHT22;11650;48.106;-1.696;2022-07-12T02:49:33;22.10;99.90
22968;DHT22;11650;48.106;-1.696;2022-07-12T02:51:59;22.00;99.90
22968;DHT22;11650;48.106;-1.696;2022-07-12T02:54:24;22.10;99.90
22968;DHT22;11650;48.106;-1.696;2022-07-12T02:56:50;22.00;99.90
22968;DHT22;11650;48.106;-1.696;2022-07-12T02:59:16;22.00;99.90
22968;DHT22;11650;48.106;-1.696;2022-07-12T03:01:42;22.00;99.90
22968;DHT22;11650;48.106;-1.696;2022-07-12T03:04:08;21.90;99.90
22968;DHT22;11650;48.106;-1.696;2022-07-12T03:06:34;21.90;99.90
22968;DHT22;11650;48.106;-1.696;2022-07-12T03:08:59;21.80;99.90
22968;DHT22;11650;48.106;-1.696;2022-07-12T03:11:25;21.80;99.90
22968;DHT22;11650;48.106;-1.696;2022-07-12T03:13:50;21.70;99.90
22968;DHT22;11650;48.106;-1.696;2022-07-12T03:16:16;21.70;99.90
22968;DHT22;11650;48.106;-1.696;2022-07-12T03:18:42;21.70;99.90
22968;DHT22;11650;48.106;-1.696;2022-07-12T03:21:09;21.70;99.90
22968;DHT22;11650;48.106;-1.696;2022-07-12T03:23:35;21.60;99.90
22968;DHT22;11650;48.106;-1.696;2022-07-12T03:26:01;21.70;99.90
22968;DHT22;11650;48.106;-1.696;2022-07-12T03:28:27;21.70;99.90
22968;DHT22;11650;48.106;-1.696;2022-07-12T03:30:52;21.60;99.90
22968;DHT22;11650;48.106;-1.696;2022-07-12T03:33:18;21.60;99.90
22968;DHT22;11650;48.106;-1.696;2022-07-12T03:35:44;21.50;99.90
22968;DHT22;11650;48.106;-1.696;2022-07-12T03:38:09;21.50;99.90
22968;DHT22;11650;48.106;-1.696;2022-07-12T03:40:35;21.40;99.90
22968;DHT22;11650;48.106;-1.696;2022-07-12T03:43:00;21.40;99.90
22968;DHT22;11650;48.106;-1.696;2022-07-12T03:45:26;21.30;99.90
22968;DHT22;11650;48.106;-1.696;2022-07-12T03:47:52;21.30;99.90
22968;DHT22;11650;48.106;-1.696;2022-07-12T03:50:18;21.30;99.90
22968;DHT22;11650;48.106;-1.696;2022-07-12T03:52:44;21.30;99.90
22968;DHT22;11650;48.106;-1.696;2022-07-12T03:55:11;21.30;99.90
22968;DHT22;11650;48.106;-1.696;2022-07-12T03:57:37;21.30;99.90
22968;DHT22;11650;48.106;-1.696;2022-07-12T04:00:08;21.30;99.90
22968;DHT22;11650;48.106;-1.696;2022-07-12T04:02:37;21.20;99.90
22968;DHT22;11650;48.106;-1.696;2022-07-12T04:05:05;21.10;99.90
22968;DHT22;11650;48.106;-1.696;2022-07-12T04:07:31;21.10;99.90
22968;DHT22;11650;48.106;-1.696;2022-07-12T04:09:57;21.10;99.90
22968;DHT22;11650;48.106;-1.696;2022-07-12T04:12:23;21.10;99.90
22968;DHT22;11650;48.106;-1.696;2022-07-12T04:14:48;21.10;99.90
22968;DHT22;11650;48.106;-1.696;2022-07-12T04:17:14;21.20;99.90
22968;DHT22;11650;48.106;-1.696;2022-07-12T04:19:40;21.20;99.90
22968;DHT22;11650;48.106;-1.696;2022-07-12T04:22:05;21.10;99.90
22968;DHT22;11650;48.106;-1.696;2022-07-12T04:24:31;21.10;99.90
22968;DHT22;11650;48.106;-1.696;2022-07-12T04:26:58;21.00;99.90
22968;DHT22;11650;48.106;-1.696;2022-07-12T04:29:24;21.00;99.90
22968;DHT22;11650;48.106;-1.696;2022-07-12T04:31:49;21.00;99.90
22968;DHT22;11650;48.106;-1.696;2022-07-12T04:34:15;20.90;99.90
22968;DHT22;11650;48.106;-1.696;2022-07-12T04:36:45;20.90;99.90
22968;DHT22;11650;48.106;-1.696;2022-07-12T04:39:11;20.90;99.90
22968;DHT22;11650;48.106;-1.696;2022-07-12T04:41:37;20.90;99.90
22968;DHT22;11650;48.106;-1.696;2022-07-12T04:44:04;21.00;99.90
22968;DHT22;11650;48.106;-1.696;2022-07-12T04:46:30;20.90;99.90
22968;DHT22;11650;48.106;-1.696;2022-07-12T04:48:55;21.00;99.90
22968;DHT22;11650;48.106;-1.696;2022-07-12T04:51:21;21.00;99.90
22968;DHT22;11650;48.106;-1.696;2022-07-12T04:53:47;21.10;99.90
22968;DHT22;11650;48.106;-1.696;2022-07-12T04:56:12;21.00;99.90
22968;DHT22;11650;48.106;-1.696;2022-07-12T04:58:38;21.10;99.90
22968;DHT22;11650;48.106;-1.696;2022-07-12T05:01:03;21.00;99.90
22968;DHT22;11650;48.106;-1.696;2022-07-12T05:03:29;21.00;99.90
22968;DHT22;11650;48.106;-1.696;2022-07-12T05:05:56;21.10;99.90
22968;DHT22;11650;48.106;-1.696;2022-07-12T05:08:21;21.00;99.90
22968;DHT22;11650;48.106;-1.696;2022-07-12T05:10:47;21.10;99.90
22968;DHT22;11650;48.106;-1.696;2022-07-12T05:13:14;21.10;99.90
22968;DHT22;11650;48.106;-1.696;2022-07-12T05:15:39;21.10;99.90
22968;DHT22;11650;48.106;-1.696;2022-07-12T05:18:05;21.20;99.90
22968;DHT22;11650;48.106;-1.696;2022-07-12T05:20:31;21.20;99.90
22968;DHT22;11650;48.106;-1.696;2022-07-12T05:22:56;21.40;99.90
22968;DHT22;11650;48.106;-1.696;2022-07-12T05:25:22;21.50;99.90
22968;DHT22;11650;48.106;-1.696;2022-07-12T05:27:48;21.60;99.90
22968;DHT22;11650;48.106;-1.696;2022-07-12T05:30:13;21.70;99.90
22968;DHT22;11650;48.106;-1.696;2022-07-12T05:32:39;21.80;99.90
22968;DHT22;11650;48.106;-1.696;2022-07-12T05:35:05;21.90;99.90
22968;DHT22;11650;48.106;-1.696;2022-07-12T05:37:31;21.90;99.90
22968;DHT22;11650;48.106;-1.696;2022-07-12T05:39:57;22.00;99.90
22968;DHT22;11650;48.106;-1.696;2022-07-12T05:42:22;22.10;99.90
22968;DHT22;11650;48.106;-1.696;2022-07-12T05:44:48;22.10;99.90
22968;DHT22;11650;48.106;-1.696;2022-07-12T05:47:14;22.10;99.90
22968;DHT22;11650;48.106;-1.696;2022-07-12T05:49:39;22.30;99.90
22968;DHT22;11650;48.106;-1.696;2022-07-12T05:52:05;22.30;99.90
22968;DHT22;11650;48.106;-1.696;2022-07-12T05:54:49;22.30;99.90
22968;DHT22;11650;48.106;-1.696;2022-07-12T05:57:16;22.30;99.90
22968;DHT22;11650;48.106;-1.696;2022-07-12T05:59:42;22.30;99.90
22968;DHT22;11650;48.106;-1.696;2022-07-12T06:02:08;22.30;99.90
22968;DHT22;11650;48.106;-1.696;2022-07-12T06:04:34;22.30;99.90
22968;DHT22;11650;48.106;-1.696;2022-07-12T06:07:00;22.30;99.90
22968;DHT22;11650;48.106;-1.696;2022-07-12T06:09:25;22.40;99.90
22968;DHT22;11650;48.106;-1.696;2022-07-12T06:11:51;22.50;99.90
22968;DHT22;11650;48.106;-1.696;2022-07-12T06:14:17;22.50;99.90
22968;DHT22;11650;48.106;-1.696;2022-07-12T06:16:43;22.60;99.90
22968;DHT22;11650;48.106;-1.696;2022-07-12T06:19:08;22.60;99.90
22968;DHT22;11650;48.106;-1.696;2022-07-12T06:21:34;22.70;99.90
22968;DHT22;11650;48.106;-1.696;2022-07-12T06:24:00;22.80;99.90
22968;DHT22;11650;48.106;-1.696;2022-07-12T06:26:25;22.90;99.90
22968;DHT22;11650;48.106;-1.696;2022-07-12T06:28:52;23.10;99.90
22968;DHT22;11650;48.106;-1.696;2022-07-12T06:31:18;23.10;99.90
22968;DHT22;11650;48.106;-1.696;2022-07-12T06:33:44;23.20;99.90
22968;DHT22;11650;48.106;-1.696;2022-07-12T06:36:09;23.20;99.90
22968;DHT22;11650;48.106;-1.696;2022-07-12T06:38:35;23.30;99.90
22968;DHT22;11650;48.106;-1.696;2022-07-12T06:41:00;23.30;99.90
22968;DHT22;11650;48.106;-1.696;2022-07-12T06:43:26;23.40;99.90
22968;DHT22;11650;48.106;-1.696;2022-07-12T06:45:52;23.40;99.90
22968;DHT22;11650;48.106;-1.696;2022-07-12T06:48:18;23.50;99.90
22968;DHT22;11650;48.106;-1.696;2022-07-12T06:50:44;23.60;99.90
22968;DHT22;11650;48.106;-1.696;2022-07-12T06:53:11;23.60;99.90
22968;DHT22;11650;48.106;-1.696;2022-07-12T06:55:37;23.60;99.90
22968;DHT22;11650;48.106;-1.696;2022-07-12T06:58:03;23.70;99.90
22968;DHT22;11650;48.106;-1.696;2022-07-12T07:00:29;23.80;99.90
22968;DHT22;11650;48.106;-1.696;2022-07-12T07:02:54;23.80;99.90
22968;DHT22;11650;48.106;-1.696;2022-07-12T07:05:20;23.90;99.90
22968;DHT22;11650;48.106;-1.696;2022-07-12T07:07:45;24.00;99.90
22968;DHT22;11650;48.106;-1.696;2022-07-12T07:10:11;24.10;99.90
22968;DHT22;11650;48.106;-1.696;2022-07-12T07:12:37;24.30;99.90
22968;DHT22;11650;48.106;-1.696;2022-07-12T07:15:03;24.50;99.90
22968;DHT22;11650;48.106;-1.696;2022-07-12T07:17:28;24.50;99.90
22968;DHT22;11650;48.106;-1.696;2022-07-12T07:19:54;24.40;99.90
22968;DHT22;11650;48.106;-1.696;2022-07-12T07:22:20;24.50;99.90
22968;DHT22;11650;48.106;-1.696;2022-07-12T07:24:45;24.70;99.90
22968;DHT22;11650;48.106;-1.696;2022-07-12T07:27:12;24.70;99.90
22968;DHT22;11650;48.106;-1.696;2022-07-12T07:29:38;24.70;99.90
22968;DHT22;11650;48.106;-1.696;2022-07-12T07:32:22;24.80;99.90
22968;DHT22;11650;48.106;-1.696;2022-07-12T07:34:48;24.90;99.90
22968;DHT22;11650;48.106;-1.696;2022-07-12T07:37:14;25.20;99.90
22968;DHT22;11650;48.106;-1.696;2022-07-12T07:39:40;25.10;99.90
22968;DHT22;11650;48.106;-1.696;2022-07-12T07:42:05;25.10;99.90
22968;DHT22;11650;48.106;-1.696;2022-07-12T07:44:31;25.30;99.90
22968;DHT22;11650;48.106;-1.696;2022-07-12T07:46:57;25.40;99.90
22968;DHT22;11650;48.106;-1.696;2022-07-12T07:49:22;25.50;99.90
22968;DHT22;11650;48.106;-1.696;2022-07-12T07:51:48;25.50;99.90
22968;DHT22;11650;48.106;-1.696;2022-07-12T07:54:14;25.50;99.90
22968;DHT22;11650;48.106;-1.696;2022-07-12T07:56:39;25.60;99.90
22968;DHT22;11650;48.106;-1.696;2022-07-12T07:59:05;25.70;99.90
22968;DHT22;11650;48.106;-1.696;2022-07-12T08:01:33;25.70;99.90
22968;DHT22;11650;48.106;-1.696;2022-07-12T08:04:15;25.80;99.90
22968;DHT22;11650;48.106;-1.696;2022-07-12T08:06:42;25.90;99.90
22968;DHT22;11650;48.106;-1.696;2022-07-12T08:09:08;26.00;99.90
22968;DHT22;11650;48.106;-1.696;2022-07-12T08:11:35;26.10;99.90
22968;DHT22;11650;48.106;-1.696;2022-07-12T08:14:01;26.10;99.90
22968;DHT22;11650;48.106;-1.696;2022-07-12T08:16:27;26.20;99.90
22968;DHT22;11650;48.106;-1.696;2022-07-12T08:18:53;26.40;99.90
22968;DHT22;11650;48.106;-1.696;2022-07-12T08:21:18;26.30;99.90
22968;DHT22;11650;48.106;-1.696;2022-07-12T08:23:44;26.30;99.90
22968;DHT22;11650;48.106;-1.696;2022-07-12T08:26:10;26.40;99.90
22968;DHT22;11650;48.106;-1.696;2022-07-12T08:28:35;26.40;99.90
22968;DHT22;11650;48.106;-1.696;2022-07-12T08:31:01;26.40;99.90
22968;DHT22;11650;48.106;-1.696;2022-07-12T08:33:27;26.60;99.90
22968;DHT22;11650;48.106;-1.696;2022-07-12T08:35:52;26.60;99.90
22968;DHT22;11650;48.106;-1.696;2022-07-12T08:38:18;26.80;99.90
22968;DHT22;11650;48.106;-1.696;2022-07-12T08:40:44;27.00;99.90
22968;DHT22;11650;48.106;-1.696;2022-07-12T08:43:09;27.10;99.90
22968;DHT22;11650;48.106;-1.696;2022-07-12T08:45:35;27.30;99.90
22968;DHT22;11650;48.106;-1.696;2022-07-12T08:48:01;27.20;99.90
22968;DHT22;11650;48.106;-1.696;2022-07-12T08:50:26;27.20;99.90
22968;DHT22;11650;48.106;-1.696;2022-07-12T08:52:54;27.30;99.90
22968;DHT22;11650;48.106;-1.696;2022-07-12T08:57:50;27.50;99.90
22968;DHT22;11650;48.106;-1.696;2022-07-12T09:00:16;27.60;99.90
22968;DHT22;11650;48.106;-1.696;2022-07-12T09:02:58;27.80;99.90
22968;DHT22;11650;48.106;-1.696;2022-07-12T09:05:25;27.90;99.90
22968;DHT22;11650;48.106;-1.696;2022-07-12T09:08:08;27.90;99.90
22968;DHT22;11650;48.106;-1.696;2022-07-12T09:10:35;27.90;99.90
22968;DHT22;11650;48.106;-1.696;2022-07-12T09:13:01;28.00;99.90
22968;DHT22;11650;48.106;-1.696;2022-07-12T09:15:27;28.00;99.90
22968;DHT22;11650;48.106;-1.696;2022-07-12T09:18:01;28.00;99.90
22968;DHT22;11650;48.106;-1.696;2022-07-12T09:20:33;28.10;99.90
22968;DHT22;11650;48.106;-1.696;2022-07-12T09:23:04;28.10;99.90
22968;DHT22;11650;48.106;-1.696;2022-07-12T09:25:31;28.40;99.90
22968;DHT22;11650;48.106;-1.696;2022-07-12T09:28:03;28.50;99.90
22968;DHT22;11650;48.106;-1.696;2022-07-12T09:30:31;28.60;99.90
22968;DHT22;11650;48.106;-1.696;2022-07-12T09:33:02;28.80;99.90
22968;DHT22;11650;48.106;-1.696;2022-07-12T09:38:59;28.80;99.90
22968;DHT22;11650;48.106;-1.696;2022-07-12T09:41:27;28.90;99.90
22968;DHT22;11650;48.106;-1.696;2022-07-12T09:43:53;28.90;99.90
22968;DHT22;11650;48.106;-1.696;2022-07-12T09:46:19;29.00;99.90
22968;DHT22;11650;48.106;-1.696;2022-07-12T09:48:46;29.00;99.90
22968;DHT22;11650;48.106;-1.696;2022-07-12T09:51:17;29.10;99.90
22968;DHT22;11650;48.106;-1.696;2022-07-12T09:53:47;29.10;99.60
22968;DHT22;11650;48.106;-1.696;2022-07-12T09:56:15;29.20;99.40
22968;DHT22;11650;48.106;-1.696;2022-07-12T10:01:16;29.60;98.80
22968;DHT22;11650;48.106;-1.696;2022-07-12T10:03:43;29.60;98.80
22968;DHT22;11650;48.106;-1.696;2022-07-12T10:06:09;29.80;98.20
22968;DHT22;11650;48.106;-1.696;2022-07-12T10:08:36;29.80;97.90
22968;DHT22;11650;48.106;-1.696;2022-07-12T10:13:28;29.90;97.50
22968;DHT22;11650;48.106;-1.696;2022-07-12T10:16:00;30.00;97.10
22968;DHT22;11650;48.106;-1.696;2022-07-12T10:18:27;30.00;96.50
22968;DHT22;11650;48.106;-1.696;2022-07-12T10:20:53;30.10;96.60
22968;DHT22;11650;48.106;-1.696;2022-07-12T10:23:30;30.30;96.50
22968;DHT22;11650;48.106;-1.696;2022-07-12T10:25:56;30.50;96.20
22968;DHT22;11650;48.106;-1.696;2022-07-12T10:28:22;30.70;95.90
22968;DHT22;11650;48.106;-1.696;2022-07-12T10:30:49;30.50;95.50
22968;DHT22;11650;48.106;-1.696;2022-07-12T10:33:17;30.60;95.60
22968;DHT22;11650;48.106;-1.696;2022-07-12T10:38:24;30.60;95.60
22968;DHT22;11650;48.106;-1.696;2022-07-12T10:40:51;30.90;95.10
22968;DHT22;11650;48.106;-1.696;2022-07-12T10:43:28;31.00;94.80
22968;DHT22;11650;48.106;-1.696;2022-07-12T10:46:21;31.10;94.90
22968;DHT22;11650;48.106;-1.696;2022-07-12T10:48:49;31.20;93.60
22968;DHT22;11650;48.106;-1.696;2022-07-12T10:51:16;31.20;93.90
22968;DHT22;11650;48.106;-1.696;2022-07-12T10:53:44;31.40;93.90
22968;DHT22;11650;48.106;-1.696;2022-07-12T10:58:45;31.60;93.30
22968;DHT22;11650;48.106;-1.696;2022-07-12T11:03:47;31.50;93.20
22968;DHT22;11650;48.106;-1.696;2022-07-12T11:06:17;31.40;92.90
22968;DHT22;11650;48.106;-1.696;2022-07-12T11:09:03;31.80;92.10
22968;DHT22;11650;48.106;-1.696;2022-07-12T11:11:34;31.90;91.90
22968;DHT22;11650;48.106;-1.696;2022-07-12T11:14:00;32.10;91.00
22968;DHT22;11650;48.106;-1.696;2022-07-12T11:16:28;32.00;91.40
22968;DHT22;11650;48.106;-1.696;2022-07-12T11:18:54;31.90;91.70
22968;DHT22;11650;48.106;-1.696;2022-07-12T11:21:22;32.10;91.60
22968;DHT22;11650;48.106;-1.696;2022-07-12T11:23:48;32.00;90.20
22968;DHT22;11650;48.106;-1.696;2022-07-12T11:26:14;32.10;90.50
22968;DHT22;11650;48.106;-1.696;2022-07-12T11:28:42;32.30;90.30
22968;DHT22;11650;48.106;-1.696;2022-07-12T11:31:15;32.00;90.70
22968;DHT22;11650;48.106;-1.696;2022-07-12T11:33:46;32.10;90.90
22968;DHT22;11650;48.106;-1.696;2022-07-12T11:36:13;32.30;90.80
22968;DHT22;11650;48.106;-1.696;2022-07-12T11:38:41;32.50;90.90
22968;DHT22;11650;48.106;-1.696;2022-07-12T11:41:08;32.90;90.20
22968;DHT22;11650;48.106;-1.696;2022-07-12T11:43:35;32.90;89.60
22968;DHT22;11650;48.106;-1.696;2022-07-12T11:46:03;32.80;90.60
22968;DHT22;11650;48.106;-1.696;2022-07-12T11:48:29;32.70;90.90
22968;DHT22;11650;48.106;-1.696;2022-07-12T11:51:07;32.50;91.00
22968;DHT22;11650;48.106;-1.696;2022-07-12T11:53:34;32.60;91.00
22968;DHT22;11650;48.106;-1.696;2022-07-12T11:56:01;33.00;90.90
22968;DHT22;11650;48.106;-1.696;2022-07-12T11:58:28;33.20;90.40
22968;DHT22;11650;48.106;-1.696;2022-07-12T12:00:55;33.30;89.60
22968;DHT22;11650;48.106;-1.696;2022-07-12T12:03:22;33.50;88.70
22968;DHT22;11650;48.106;-1.696;2022-07-12T12:05:49;33.60;88.10
22968;DHT22;11650;48.106;-1.696;2022-07-12T12:08:16;33.60;87.80
22968;DHT22;11650;48.106;-1.696;2022-07-12T12:10:48;33.70;87.00
22968;DHT22;11650;48.106;-1.696;2022-07-12T12:13:18;33.50;85.80
22968;DHT22;11650;48.106;-1.696;2022-07-12T12:15:55;33.50;86.80
22968;DHT22;11650;48.106;-1.696;2022-07-12T12:18:40;33.60;85.40
22968;DHT22;11650;48.106;-1.696;2022-07-12T12:21:09;33.80;83.60
22968;DHT22;11650;48.106;-1.696;2022-07-12T12:23:36;34.00;82.70
22968;DHT22;11650;48.106;-1.696;2022-07-12T12:28:45;34.10;82.50
22968;DHT22;11650;48.106;-1.696;2022-07-12T12:31:12;34.30;82.00
22968;DHT22;11650;48.106;-1.696;2022-07-12T12:33:39;34.20;81.20
22968;DHT22;11650;48.106;-1.696;2022-07-12T12:38:48;34.00;79.90
22968;DHT22;11650;48.106;-1.696;2022-07-12T12:41:15;34.00;79.00
22968;DHT22;11650;48.106;-1.696;2022-07-12T12:43:43;33.80;79.50
22968;DHT22;11650;48.106;-1.696;2022-07-12T12:46:09;34.00;78.90
22968;DHT22;11650;48.106;-1.696;2022-07-12T12:48:35;34.50;79.40
22968;DHT22;11650;48.106;-1.696;2022-07-12T12:51:09;34.90;80.00
22968;DHT22;11650;48.106;-1.696;2022-07-12T12:53:37;35.00;79.40
22968;DHT22;11650;48.106;-1.696;2022-07-12T12:56:14;35.10;79.40
22968;DHT22;11650;48.106;-1.696;2022-07-12T12:58:41;35.30;79.70
22968;DHT22;11650;48.106;-1.696;2022-07-12T13:01:08;35.50;79.60
22968;DHT22;11650;48.106;-1.696;2022-07-12T13:03:34;35.20;81.20
22968;DHT22;11650;48.106;-1.696;2022-07-12T13:06:00;35.40;80.30
22968;DHT22;11650;48.106;-1.696;2022-07-12T13:08:27;35.60;81.30
22968;DHT22;11650;48.106;-1.696;2022-07-12T13:10:53;35.80;79.80
22968;DHT22;11650;48.106;-1.696;2022-07-12T13:13:54;35.80;80.20
22968;DHT22;11650;48.106;-1.696;2022-07-12T13:16:20;35.60;79.90
22968;DHT22;11650;48.106;-1.696;2022-07-12T13:18:46;35.50;81.60
22968;DHT22;11650;48.106;-1.696;2022-07-12T13:21:11;35.20;80.00
22968;DHT22;11650;48.106;-1.696;2022-07-12T13:23:37;35.80;80.10
22968;DHT22;11650;48.106;-1.696;2022-07-12T13:26:02;36.10;78.90
22968;DHT22;11650;48.106;-1.696;2022-07-12T13:28:28;36.40;78.30
22968;DHT22;11650;48.106;-1.696;2022-07-12T13:30:54;36.70;77.00
22968;DHT22;11650;48.106;-1.696;2022-07-12T13:33:20;37.50;76.50
22968;DHT22;11650;48.106;-1.696;2022-07-12T13:35:46;37.20;75.90
22968;DHT22;11650;48.106;-1.696;2022-07-12T13:38:12;37.60;75.50
22968;DHT22;11650;48.106;-1.696;2022-07-12T13:40:38;37.50;74.30
22968;DHT22;11650;48.106;-1.696;2022-07-12T13:43:03;38.00;74.10
22968;DHT22;11650;48.106;-1.696;2022-07-12T13:45:29;38.20;73.20
22968;DHT22;11650;48.106;-1.696;2022-07-12T13:47:55;38.30;73.10
22968;DHT22;11650;48.106;-1.696;2022-07-12T13:50:21;38.60;72.80
22968;DHT22;11650;48.106;-1.696;2022-07-12T13:52:48;38.70;71.80
22968;DHT22;11650;48.106;-1.696;2022-07-12T13:55:15;38.90;71.60
22968;DHT22;11650;48.106;-1.696;2022-07-12T13:57:42;39.40;71.30
22968;DHT22;11650;48.106;-1.696;2022-07-12T14:00:10;39.30;69.90
22968;DHT22;11650;48.106;-1.696;2022-07-12T14:02:37;39.90;69.70
22968;DHT22;11650;48.106;-1.696;2022-07-12T14:05:05;40.10;70.30
22968;DHT22;11650;48.106;-1.696;2022-07-12T14:07:31;39.90;70.50
22968;DHT22;11650;48.106;-1.696;2022-07-12T14:09:58;39.50;70.50
22968;DHT22;11650;48.106;-1.696;2022-07-12T14:12:24;40.00;70.60
22968;DHT22;11650;48.106;-1.696;2022-07-12T14:14:51;40.40;69.80
22968;DHT22;11650;48.106;-1.696;2022-07-12T14:20:12;39.90;70.20
22968;DHT22;11650;48.106;-1.696;2022-07-12T14:22:38;40.50;68.50
22968;DHT22;11650;48.106;-1.696;2022-07-12T14:25:05;40.90;67.50
22968;DHT22;11650;48.106;-1.696;2022-07-12T14:27:34;40.80;67.10
22968;DHT22;11650;48.106;-1.696;2022-07-12T14:30:01;41.00;66.60
22968;DHT22;11650;48.106;-1.696;2022-07-12T14:32:26;41.50;66.20
22968;DHT22;11650;48.106;-1.696;2022-07-12T14:34:52;41.10;65.80
22968;DHT22;11650;48.106;-1.696;2022-07-12T14:37:18;40.50;66.40
22968;DHT22;11650;48.106;-1.696;2022-07-12T14:39:44;40.40;66.00
22968;DHT22;11650;48.106;-1.696;2022-07-12T14:42:09;41.30;66.20
22968;DHT22;11650;48.106;-1.696;2022-07-12T14:44:35;41.40;66.00
22968;DHT22;11650;48.106;-1.696;2022-07-12T14:47:02;41.20;67.70
22968;DHT22;11650;48.106;-1.696;2022-07-12T14:49:27;41.70;66.40
22968;DHT22;11650;48.106;-1.696;2022-07-12T14:51:54;42.70;64.90
22968;DHT22;11650;48.106;-1.696;2022-07-12T14:54:20;42.70;64.20
22968;DHT22;11650;48.106;-1.696;2022-07-12T14:56:45;42.90;62.70
22968;DHT22;11650;48.106;-1.696;2022-07-12T14:59:11;42.80;63.90
22968;DHT22;11650;48.106;-1.696;2022-07-12T15:01:37;43.10;62.70
22968;DHT22;11650;48.106;-1.696;2022-07-12T15:04:03;43.10;62.20
22968;DHT22;11650;48.106;-1.696;2022-07-12T15:06:28;42.80;62.30
22968;DHT22;11650;48.106;-1.696;2022-07-12T15:08:54;42.90;62.40
22968;DHT22;11650;48.106;-1.696;2022-07-12T15:11:20;43.70;61.80
22968;DHT22;11650;48.106;-1.696;2022-07-12T15:13:46;43.90;61.10
22968;DHT22;11650;48.106;-1.696;2022-07-12T15:16:12;43.20;61.50
22968;DHT22;11650;48.106;-1.696;2022-07-12T15:18:37;43.10;61.20
22968;DHT22;11650;48.106;-1.696;2022-07-12T15:21:03;43.20;61.20
22968;DHT22;11650;48.106;-1.696;2022-07-12T15:23:29;43.60;60.30
22968;DHT22;11650;48.106;-1.696;2022-07-12T15:25:56;43.60;60.90
22968;DHT22;11650;48.106;-1.696;2022-07-12T15:28:24;44.30;59.80
22968;DHT22;11650;48.106;-1.696;2022-07-12T15:30:50;44.80;58.90
22968;DHT22;11650;48.106;-1.696;2022-07-12T15:33:16;45.30;59.10
22968;DHT22;11650;48.106;-1.696;2022-07-12T15:35:41;44.60;59.10
22968;DHT22;11650;48.106;-1.696;2022-07-12T15:38:07;43.50;60.30
22968;DHT22;11650;48.106;-1.696;2022-07-12T15:40:37;44.10;59.30
22968;DHT22;11650;48.106;-1.696;2022-07-12T15:43:03;44.50;59.20